createdAt,value
2022-08-21T00:01:54.771Z,12.40
2022-08-21T00:04:27.354Z,12.20
2022-08-21T00:06:59.981Z,12.30
2022-08-21T00:09:28.491Z,12.30
2022-08-21T00:11:56.639Z,12.40
2022-08-21T00:14:25.047Z,12.40
2022-08-21T00:16:53.705Z,12.20
2022-08-21T00:19:26.023Z,12.10
2022-08-21T00:21:54.732Z,12.10
2022-08-21T00:24:26.299Z,12.10
2022-08-21T00:26:54.962Z,12.10
2022-08-21T00:29:23.200Z,12.00
2022-08-21T00:31:51.314Z,12.00
2022-08-21T00:34:19.557Z,12.00
2022-08-21T00:36:47.766Z,12.10
2022-08-21T00:39:17.096Z,12.00
2022-08-21T00:41:46.737Z,11.80
2022-08-21T00:44:17.025Z,11.70
2022-08-21T00:46:45.990Z,11.70
2022-08-21T00:49:15.344Z,11.70
2022-08-21T00:51:50.603Z,11.70
2022-08-21T00:54:20.762Z,11.70
2022-08-21T00:56:56.108Z,11.60
2022-08-21T00:59:30.185Z,11.60
2022-08-21T01:01:59.702Z,11.60
2022-08-21T01:04:28.087Z,11.60
2022-08-21T01:06:56.484Z,11.60
2022-08-21T01:09:24.887Z,11.50
2022-08-21T01:11:54.587Z,11.50
2022-08-21T01:14:23.671Z,11.40
2022-08-21T01:16:54.576Z,11.40
2022-08-21T01:19:26.141Z,11.40
2022-08-21T01:21:55.889Z,11.40
2022-08-21T01:24:24.796Z,11.40
2022-08-21T01:26:53.745Z,11.40
2022-08-21T01:29:34.014Z,11.40
2022-08-21T01:32:09.574Z,11.40
2022-08-21T01:34:43.059Z,11.40
2022-08-21T01:37:13.564Z,11.30
2022-08-21T01:39:43.731Z,11.20
2022-08-21T01:42:12.238Z,11.20
2022-08-21T01:44:41.271Z,11.10
2022-08-21T01:47:14.012Z,11.10
2022-08-21T01:49:42.691Z,11.00
2022-08-21T01:52:13.515Z,11.00
2022-08-21T01:54:42.737Z,11.00
2022-08-21T01:57:12.298Z,10.90
2022-08-21T01:59:41.159Z,10.90
2022-08-21T02:02:09.312Z,10.90
2022-08-21T02:04:37.674Z,11.00
2022-08-21T02:07:08.356Z,11.00
2022-08-21T02:09:40.371Z,10.90
2022-08-21T02:12:09.125Z,10.90
2022-08-21T02:14:37.804Z,10.80
2022-08-21T02:17:09.466Z,10.70
2022-08-21T02:19:40.371Z,10.70
2022-08-21T02:22:10.402Z,10.60
2022-08-21T02:24:53.873Z,10.70
2022-08-21T02:27:26.308Z,10.60
2022-08-21T02:29:57.344Z,10.60
2022-08-21T02:32:26.753Z,10.50
2022-08-21T02:34:55.311Z,10.50
2022-08-21T02:37:23.896Z,10.50
2022-08-21T02:39:53.464Z,10.50
2022-08-21T02:42:21.671Z,10.40
2022-08-21T02:44:49.931Z,10.40
2022-08-21T02:47:18.127Z,10.30
2022-08-21T02:49:46.251Z,10.20
2022-08-21T02:52:15.372Z,10.30
2022-08-21T02:54:43.476Z,10.30
2022-08-21T02:57:12.960Z,10.30
2022-08-21T02:59:41.681Z,10.30
2022-08-21T03:02:10.183Z,10.30
2022-08-21T03:04:38.382Z,10.30
2022-08-21T03:07:06.784Z,10.30
2022-08-21T03:09:39.428Z,10.30
2022-08-21T03:12:20.355Z,10.30
2022-08-21T03:14:48.494Z,10.30
2022-08-21T03:17:16.604Z,10.30
2022-08-21T03:19:44.802Z,10.30
2022-08-21T03:22:12.948Z,10.20
2022-08-21T03:24:44.143Z,10.30
2022-08-21T03:27:13.440Z,10.10
2022-08-21T03:29:43.643Z,10.10
2022-08-21T03:32:11.739Z,10.00
2022-08-21T03:34:41.083Z,9.90
2022-08-21T03:37:12.412Z,9.80
2022-08-21T03:39:42.602Z,9.70
2022-08-21T03:42:11.626Z,9.70
2022-08-21T03:44:40.691Z,9.50
2022-08-21T03:47:10.606Z,9.60
2022-08-21T03:49:39.557Z,9.60
2022-08-21T03:52:07.805Z,9.70
2022-08-21T03:54:35.996Z,9.70
2022-08-21T03:57:04.615Z,9.70
2022-08-21T03:59:32.752Z,9.70
2022-08-21T04:02:04.470Z,9.70
2022-08-21T04:04:35.383Z,9.70
2022-08-21T04:07:05.152Z,9.60
2022-08-21T04:09:34.192Z,9.80
2022-08-21T04:12:03.204Z,9.80
2022-08-21T04:14:31.347Z,9.70
2022-08-21T04:16:59.427Z,9.70
2022-08-21T04:19:27.628Z,9.70
2022-08-21T04:21:57.179Z,9.70
2022-08-21T04:24:25.251Z,9.60
2022-08-21T04:26:58.155Z,9.60
2022-08-21T04:29:26.232Z,9.60
2022-08-21T04:31:54.390Z,9.60
2022-08-21T04:34:22.477Z,9.70
2022-08-21T04:36:50.615Z,9.60
2022-08-21T04:39:20.150Z,9.50
2022-08-21T04:41:48.243Z,9.60
2022-08-21T04:44:16.437Z,9.60
2022-08-21T04:46:44.592Z,9.60
2022-08-21T04:49:13.060Z,9.60
2022-08-21T04:51:41.725Z,9.70
2022-08-21T04:54:16.685Z,9.70
2022-08-21T04:56:51.722Z,9.90
2022-08-21T04:59:24.728Z,9.80
2022-08-21T05:01:55.792Z,9.80
2022-08-21T05:04:28.773Z,9.90
2022-08-21T05:07:03.926Z,10.00
2022-08-21T05:09:33.323Z,10.00
2022-08-21T05:12:03.984Z,10.10
2022-08-21T05:14:32.142Z,10.20
2022-08-21T05:17:00.754Z,10.30
2022-08-21T05:19:28.903Z,10.30
2022-08-21T05:21:57.014Z,10.40
2022-08-21T05:24:25.297Z,10.60
2022-08-21T05:26:53.775Z,11.00
2022-08-21T05:29:23.880Z,11.70
2022-08-21T05:31:52.207Z,12.70
2022-08-21T05:34:23.293Z,13.80
2022-08-21T05:36:51.801Z,14.50
2022-08-21T05:39:19.849Z,15.10
2022-08-21T05:41:48.696Z,15.70
2022-08-21T05:44:16.858Z,16.10
2022-08-21T05:46:46.257Z,16.30
2022-08-21T05:49:14.566Z,16.40
2022-08-21T05:51:43.874Z,16.60
2022-08-21T05:54:12.140Z,16.90
2022-08-21T05:56:40.240Z,17.40
2022-08-21T05:59:08.913Z,18.10
2022-08-21T06:01:37.199Z,18.70
2022-08-21T06:04:08.121Z,19.00
2022-08-21T06:06:36.913Z,19.30
2022-08-21T06:09:06.534Z,19.60
2022-08-21T06:11:35.614Z,20.00
2022-08-21T06:14:04.006Z,20.40
2022-08-21T06:16:32.103Z,20.60
2022-08-21T06:19:02.860Z,20.90
2022-08-21T06:21:32.834Z,21.60
2022-08-21T06:24:00.862Z,22.30
2022-08-21T06:26:30.155Z,22.70
2022-08-21T06:28:58.493Z,23.50
2022-08-21T06:31:29.645Z,23.70
2022-08-21T06:33:58.463Z,23.90
2022-08-21T06:36:27.258Z,24.20
2022-08-21T06:38:57.150Z,24.70
2022-08-21T06:41:27.022Z,24.60
2022-08-21T06:43:57.736Z,24.60
2022-08-21T06:46:27.767Z,24.50
2022-08-21T06:48:57.220Z,25.10
2022-08-21T06:51:26.884Z,25.20
2022-08-21T06:53:57.306Z,25.90
2022-08-21T06:56:27.729Z,26.70
2022-08-21T06:58:55.803Z,26.50
2022-08-21T07:01:27.517Z,27.10
2022-08-21T07:03:58.704Z,27.20
2022-08-21T07:06:26.960Z,27.30
2022-08-21T07:08:59.180Z,27.70
2022-08-21T07:11:27.929Z,28.40
2022-08-21T07:13:57.476Z,28.40
2022-08-21T07:16:25.928Z,29.00
2022-08-21T07:18:54.017Z,29.40
2022-08-21T07:21:26.011Z,29.00
2022-08-21T07:23:56.457Z,28.20
2022-08-21T07:26:27.075Z,27.50
2022-08-21T07:28:56.066Z,27.70
2022-08-21T07:31:27.162Z,28.80
2022-08-21T07:33:56.167Z,29.40
2022-08-21T07:36:25.390Z,29.90
2022-08-21T07:38:53.715Z,29.50
2022-08-21T07:41:27.542Z,29.50
2022-08-21T07:43:55.647Z,30.00
2022-08-21T07:46:23.710Z,29.70
2022-08-21T07:48:52.195Z,30.50
2022-08-21T07:51:27.830Z,30.90
2022-08-21T07:53:59.911Z,30.80
2022-08-21T07:56:32.342Z,30.00
2022-08-21T07:59:00.449Z,29.40
2022-08-21T08:01:28.676Z,29.90
2022-08-21T08:03:57.210Z,31.20
2022-08-21T08:06:26.960Z,31.50
2022-08-21T08:08:55.032Z,32.20
2022-08-21T08:11:23.603Z,31.80
2022-08-21T08:13:54.809Z,32.50
2022-08-21T08:16:23.071Z,33.90
2022-08-21T08:18:52.455Z,35.60
2022-08-21T08:21:21.858Z,35.40
2022-08-21T08:23:50.561Z,35.40
2022-08-21T08:26:18.734Z,34.20
2022-08-21T08:28:47.627Z,33.60
2022-08-21T08:31:17.986Z,32.70
2022-08-21T08:33:46.101Z,32.50
2022-08-21T08:36:19.197Z,32.10
2022-08-21T08:38:49.880Z,32.40
2022-08-21T08:41:23.749Z,32.40
2022-08-21T08:43:56.665Z,33.20
2022-08-21T08:46:37.317Z,34.40
2022-08-21T08:49:15.296Z,34.90
2022-08-21T08:51:53.491Z,35.10
2022-08-21T08:54:32.358Z,34.70
2022-08-21T08:57:02.669Z,34.30
2022-08-21T08:59:40.984Z,34.90
2022-08-21T09:02:16.138Z,35.50
2022-08-21T09:04:49.199Z,34.90
2022-08-21T09:07:36.148Z,34.60
2022-08-21T09:10:15.661Z,35.60
2022-08-21T09:12:59.313Z,36.20
2022-08-21T09:15:37.725Z,35.80
2022-08-21T09:18:28.448Z,35.30
2022-08-21T09:21:13.394Z,35.10
2022-08-21T09:23:55.237Z,34.90
2022-08-21T09:26:28.215Z,34.20
2022-08-21T09:29:01.577Z,35.00
2022-08-21T09:31:33.685Z,35.30
2022-08-21T09:34:07.335Z,35.70
2022-08-21T09:36:43.981Z,36.00
2022-08-21T09:39:16.186Z,35.40
2022-08-21T09:41:44.719Z,35.60
2022-08-21T09:44:12.767Z,35.20
2022-08-21T09:46:52.690Z,34.70
2022-08-21T09:49:31.823Z,35.00
2022-08-21T09:52:01.232Z,34.90
2022-08-21T09:54:34.586Z,34.70
2022-08-21T09:57:38.495Z,34.60
2022-08-21T10:00:26.973Z,33.50
2022-08-21T10:02:55.341Z,33.00
2022-08-21T10:05:29.274Z,34.30
2022-08-21T10:07:57.331Z,34.90
2022-08-21T10:10:32.070Z,35.00
2022-08-21T10:13:12.360Z,34.80
2022-08-21T10:16:15.359Z,33.90
2022-08-21T10:18:49.414Z,33.40
2022-08-21T10:21:33.179Z,33.70
2022-08-21T10:24:30.651Z,34.20
2022-08-21T10:27:18.571Z,34.40
2022-08-21T10:29:58.073Z,34.30
2022-08-21T10:32:51.298Z,34.60
2022-08-21T10:35:28.954Z,35.00
2022-08-21T10:38:52.583Z,34.30
2022-08-21T10:41:42.339Z,32.80
2022-08-21T10:44:28.051Z,32.00
2022-08-21T10:47:04.291Z,32.40
2022-08-21T10:49:41.983Z,32.40
2022-08-21T10:52:53.296Z,32.90
2022-08-21T10:55:29.683Z,33.40
2022-08-21T10:58:03.090Z,34.50
2022-08-21T11:00:41.143Z,34.50
2022-08-21T11:03:18.210Z,34.70
2022-08-21T11:05:53.797Z,36.50
2022-08-21T11:08:31.627Z,36.70
2022-08-21T11:11:08.810Z,35.80
2022-08-21T11:13:44.352Z,35.40
2022-08-21T11:16:23.830Z,34.90
2022-08-21T11:18:59.470Z,36.10
2022-08-21T11:21:40.501Z,36.10
2022-08-21T11:24:26.216Z,36.00
2022-08-21T11:27:07.059Z,36.00
2022-08-21T11:29:40.400Z,37.00
2022-08-21T11:32:35.091Z,37.00
2022-08-21T11:35:16.171Z,36.50
2022-08-21T11:38:02.829Z,36.90
2022-08-21T11:40:52.800Z,37.50
2022-08-21T11:43:36.922Z,37.00
2022-08-21T11:46:22.540Z,36.20
2022-08-21T11:49:12.951Z,35.80
2022-08-21T11:51:49.116Z,35.70
2022-08-21T11:54:30.257Z,35.70
2022-08-21T11:57:07.395Z,35.40
2022-08-21T11:59:43.055Z,35.50
2022-08-21T12:02:16.093Z,36.00
2022-08-21T12:04:51.355Z,35.90
2022-08-21T12:07:38.015Z,35.60
2022-08-21T12:10:12.275Z,36.30
2022-08-21T12:12:43.347Z,36.10
2022-08-21T12:15:28.794Z,36.30
2022-08-21T12:18:02.114Z,36.50
2022-08-21T12:20:50.425Z,36.80
2022-08-21T12:23:28.828Z,38.20
2022-08-21T12:26:24.473Z,38.30
2022-08-21T12:28:52.818Z,38.40
2022-08-21T12:31:28.401Z,38.60
2022-08-21T12:34:02.699Z,38.20
2022-08-21T12:36:48.933Z,37.60
2022-08-21T12:39:26.594Z,37.10
2022-08-21T12:42:03.400Z,36.70
2022-08-21T12:44:42.210Z,36.60
2022-08-21T12:47:26.564Z,37.10
2022-08-21T12:50:03.753Z,36.10
2022-08-21T12:52:39.540Z,35.50
2022-08-21T12:55:13.140Z,36.50
2022-08-21T12:57:43.764Z,37.60
2022-08-21T13:00:16.980Z,37.70
2022-08-21T13:02:51.716Z,37.40
2022-08-21T13:05:32.109Z,36.70
2022-08-21T13:08:04.969Z,36.60
2022-08-21T13:10:36.895Z,36.20
2022-08-21T13:13:12.350Z,35.50
2022-08-21T13:15:46.471Z,35.00
2022-08-21T13:18:26.465Z,35.00
2022-08-21T13:21:07.518Z,35.40
2022-08-21T13:23:36.540Z,35.60
2022-08-21T13:26:18.522Z,35.90
2022-08-21T13:28:48.341Z,36.60
2022-08-21T13:31:24.541Z,36.30
2022-08-21T13:33:57.230Z,36.70
2022-08-21T13:36:33.708Z,36.40
2022-08-21T13:39:02.543Z,35.50
2022-08-21T13:41:35.880Z,35.00
2022-08-21T13:44:07.932Z,34.60
2022-08-21T13:46:38.496Z,34.70
2022-08-21T13:49:10.841Z,34.10
2022-08-21T13:51:39.871Z,33.20
2022-08-21T13:54:23.123Z,31.90
2022-08-21T13:56:51.490Z,31.60
2022-08-21T13:59:32.545Z,31.80
2022-08-21T14:02:10.372Z,32.10
2022-08-21T14:04:53.110Z,32.20
2022-08-21T14:07:29.362Z,32.30
2022-08-21T14:09:57.869Z,32.60
2022-08-21T14:12:35.634Z,33.20
2022-08-21T14:15:08.091Z,33.30
2022-08-21T14:17:40.589Z,33.40
2022-08-21T14:20:15.306Z,33.90
2022-08-21T14:22:47.671Z,34.60
2022-08-21T14:25:31.405Z,35.00
2022-08-21T14:28:20.847Z,34.70
2022-08-21T14:30:51.559Z,34.70
2022-08-21T14:33:29.274Z,34.80
2022-08-21T14:35:59.958Z,34.10
2022-08-21T14:38:30.706Z,33.20
2022-08-21T14:41:02.382Z,32.70
2022-08-21T14:43:30.998Z,32.80
2022-08-21T14:46:02.359Z,32.50
2022-08-21T14:48:30.600Z,32.00
2022-08-21T14:51:00.823Z,31.60
2022-08-21T14:53:29.130Z,31.20
2022-08-21T14:56:09.304Z,30.50
2022-08-21T14:58:43.931Z,30.30
2022-08-21T15:01:15.941Z,30.00
2022-08-21T15:03:44.155Z,29.60
2022-08-21T15:06:14.088Z,29.30
2022-08-21T15:08:42.208Z,28.90
2022-08-21T15:11:19.931Z,28.90
2022-08-21T15:14:08.962Z,28.80
2022-08-21T15:16:37.959Z,28.80
2022-08-21T15:19:06.075Z,28.80
2022-08-21T15:21:35.721Z,28.80
2022-08-21T15:24:04.595Z,28.90
2022-08-21T15:26:33.128Z,28.90
2022-08-21T15:29:02.105Z,28.90
2022-08-21T15:31:34.955Z,29.00
2022-08-21T15:34:03.334Z,29.50
2022-08-21T15:36:31.386Z,29.60
2022-08-21T15:39:00.873Z,29.90
2022-08-21T15:41:29.320Z,29.90
2022-08-21T15:43:57.502Z,29.80
2022-08-21T15:46:25.718Z,29.70
2022-08-21T15:48:59.235Z,29.90
2022-08-21T15:51:28.029Z,29.80
2022-08-21T15:53:56.316Z,29.90
2022-08-21T15:56:29.195Z,29.90
2022-08-21T15:59:06.186Z,29.80
2022-08-21T16:01:44.558Z,29.80
2022-08-21T16:04:20.404Z,29.80
2022-08-21T16:06:54.406Z,29.90
2022-08-21T16:09:24.210Z,30.00
2022-08-21T16:11:54.163Z,29.60
2022-08-21T16:14:22.271Z,29.40
2022-08-21T16:16:50.364Z,29.00
2022-08-21T16:19:19.298Z,28.90
2022-08-21T16:21:47.375Z,28.80
2022-08-21T16:24:15.635Z,29.00
2022-08-21T16:26:44.064Z,29.50
2022-08-21T16:29:13.971Z,29.70
2022-08-21T16:31:42.423Z,29.70
2022-08-21T16:34:18.452Z,29.60
2022-08-21T16:36:46.557Z,29.50
2022-08-21T16:39:14.770Z,29.30
2022-08-21T16:41:43.137Z,29.20
2022-08-21T16:44:11.343Z,29.00
2022-08-21T16:46:42.945Z,28.80
2022-08-21T16:49:11.135Z,28.80
2022-08-21T16:51:39.723Z,28.90
2022-08-21T16:54:07.878Z,28.90
2022-08-21T16:56:39.768Z,28.80
2022-08-21T16:59:08.799Z,28.80
2022-08-21T17:01:38.600Z,28.80
2022-08-21T17:04:08.074Z,28.80
2022-08-21T17:06:36.605Z,28.70
2022-08-21T17:09:05.523Z,28.50
2022-08-21T17:11:40.035Z,28.40
2022-08-21T17:14:13.110Z,28.30
2022-08-21T17:16:45.422Z,28.10
2022-08-21T17:19:15.994Z,28.00
2022-08-21T17:21:44.559Z,28.00
2022-08-21T17:24:15.502Z,27.80
2022-08-21T17:26:44.984Z,27.40
2022-08-21T17:29:15.995Z,27.00
2022-08-21T17:31:45.614Z,26.70
2022-08-21T17:34:17.165Z,26.40
2022-08-21T17:36:45.227Z,26.10
2022-08-21T17:39:17.763Z,26.00
2022-08-21T17:41:56.381Z,25.80
2022-08-21T17:44:27.139Z,25.70
2022-08-21T17:46:55.454Z,25.50
2022-08-21T17:49:25.364Z,25.50
2022-08-21T17:51:53.476Z,25.30
2022-08-21T17:54:21.936Z,25.20
2022-08-21T17:56:50.061Z,25.10
2022-08-21T17:59:18.393Z,25.10
2022-08-21T18:01:48.129Z,24.90
2022-08-21T18:04:17.831Z,24.80
2022-08-21T18:06:47.706Z,24.60
2022-08-21T18:09:18.342Z,24.50
2022-08-21T18:11:46.676Z,24.40
2022-08-21T18:14:15.585Z,24.20
2022-08-21T18:16:44.303Z,24.20
2022-08-21T18:19:16.038Z,24.10
2022-08-21T18:21:45.762Z,24.00
2022-08-21T18:24:14.064Z,24.10
2022-08-21T18:26:44.871Z,23.80
2022-08-21T18:29:17.935Z,23.80
2022-08-21T18:31:47.792Z,23.70
2022-08-21T18:34:27.560Z,23.60
2022-08-21T18:36:58.085Z,23.50
2022-08-21T18:39:42.890Z,23.50
2022-08-21T18:42:14.344Z,23.50
2022-08-21T18:44:48.071Z,23.30
2022-08-21T18:47:25.376Z,23.30
2022-08-21T18:49:53.775Z,23.00
2022-08-21T18:52:23.175Z,22.90
2022-08-21T18:54:56.779Z,22.80
2022-08-21T18:57:30.442Z,22.70
2022-08-21T18:59:59.494Z,22.70
2022-08-21T19:02:29.218Z,22.60
2022-08-21T19:04:57.399Z,22.50
2022-08-21T19:07:28.007Z,22.40
2022-08-21T19:12:45.568Z,22.30
2022-08-21T19:15:18.727Z,22.20
2022-08-21T19:17:50.568Z,22.10
2022-08-21T19:20:41.561Z,22.00
2022-08-21T19:23:14.412Z,21.90
2022-08-21T19:25:45.426Z,22.00
2022-08-21T19:28:29.775Z,21.90
2022-08-21T19:31:04.678Z,21.70
2022-08-21T19:33:39.309Z,21.50
2022-08-21T19:36:09.994Z,21.40
2022-08-21T19:38:41.165Z,21.50
2022-08-21T19:41:13.824Z,21.50
2022-08-21T19:43:46.344Z,21.50
2022-08-21T19:46:26.984Z,21.60
2022-08-21T19:48:57.493Z,21.40
2022-08-21T19:51:26.738Z,21.30
2022-08-21T19:53:57.678Z,21.20
2022-08-21T19:56:29.842Z,21.10
2022-08-21T19:58:59.450Z,21.10
2022-08-21T20:01:29.331Z,21.00
2022-08-21T20:04:00.535Z,21.00
2022-08-21T20:06:29.771Z,20.90
2022-08-21T20:08:59.248Z,20.80
2022-08-21T20:11:32.980Z,20.70
2022-08-21T20:14:02.703Z,20.70
2022-08-21T20:16:32.227Z,20.50
2022-08-21T20:19:03.367Z,20.50
2022-08-21T20:21:43.970Z,20.40
2022-08-21T20:24:15.673Z,20.40
2022-08-21T20:26:48.705Z,20.30
2022-08-21T20:29:24.015Z,20.20
2022-08-21T20:31:54.217Z,20.20
2022-08-21T20:34:24.051Z,20.00
2022-08-21T20:36:53.901Z,20.00
2022-08-21T20:39:24.090Z,20.00
2022-08-21T20:41:54.637Z,20.00
2022-08-21T20:44:23.757Z,20.10
2022-08-21T20:46:55.976Z,20.40
2022-08-21T20:49:34.720Z,20.20
2022-08-21T20:52:07.300Z,20.20
2022-08-21T20:54:45.434Z,20.20
2022-08-21T20:57:22.358Z,20.20
2022-08-21T20:59:58.075Z,20.10
2022-08-21T21:02:43.954Z,20.30
2022-08-21T21:05:19.423Z,20.30
2022-08-21T21:08:02.412Z,20.20
2022-08-21T21:13:39.611Z,20.20
2022-08-21T21:16:17.536Z,20.20
2022-08-21T21:18:53.667Z,20.40
2022-08-21T21:21:33.154Z,20.60
2022-08-21T21:24:08.924Z,20.70
2022-08-21T21:26:53.245Z,20.80
2022-08-21T21:29:29.980Z,20.80
2022-08-21T21:31:58.424Z,20.70
2022-08-21T21:34:31.068Z,20.50
2022-08-21T21:37:07.952Z,20.30
2022-08-21T21:39:47.941Z,20.10
2022-08-21T21:42:34.123Z,20.00
2022-08-21T21:45:16.823Z,20.00
2022-08-21T21:48:04.088Z,19.90
2022-08-21T21:50:52.382Z,19.90
2022-08-21T21:53:46.092Z,19.90
2022-08-21T21:56:35.943Z,19.80
2022-08-21T21:59:32.341Z,19.70
2022-08-21T22:02:10.551Z,19.70
2022-08-21T22:05:04.045Z,19.60
2022-08-21T22:07:44.302Z,19.50
2022-08-21T22:10:30.639Z,19.40
2022-08-21T22:13:25.313Z,19.40
2022-08-21T22:16:07.996Z,19.40
2022-08-21T22:18:45.083Z,19.40
2022-08-21T22:21:22.480Z,19.30
2022-08-21T22:23:59.359Z,19.40
2022-08-21T22:26:38.163Z,19.40
2022-08-21T22:29:12.360Z,19.30
2022-08-21T22:31:42.494Z,19.40
2022-08-21T22:37:10.052Z,19.20
2022-08-21T22:39:43.978Z,19.30
2022-08-21T22:42:15.771Z,19.30
2022-08-21T22:44:54.565Z,19.30
2022-08-21T22:47:33.564Z,19.40
2022-08-21T22:50:05.568Z,19.20
2022-08-21T22:52:37.745Z,19.10
2022-08-21T22:55:25.490Z,19.00
2022-08-21T22:58:08.771Z,19.00
2022-08-21T23:00:55.556Z,18.90
2022-08-21T23:03:33.533Z,18.80
2022-08-21T23:06:12.642Z,18.70
2022-08-21T23:08:44.161Z,18.80
2022-08-21T23:11:17.897Z,18.70
2022-08-21T23:13:48.783Z,18.80
2022-08-21T23:16:47.388Z,18.80
2022-08-21T23:19:38.212Z,18.80
2022-08-21T23:22:40.641Z,18.70
2022-08-21T23:25:35.936Z,18.50
2022-08-21T23:28:18.966Z,18.40
2022-08-21T23:30:56.205Z,18.30
2022-08-21T23:33:44.202Z,18.30
2022-08-21T23:36:50.388Z,18.30
2022-08-21T23:39:42.176Z,18.20
2022-08-21T23:42:30.371Z,18.20
2022-08-21T23:45:14.390Z,18.10
2022-08-21T23:48:08.344Z,18.10
2022-08-21T23:50:49.271Z,18.10
2022-08-21T23:53:31.168Z,18.10
2022-08-21T23:56:26.604Z,18.10
2022-08-21T23:59:13.051Z,18.20
